sensor_id;sensor_type;location;lat;lon;timestamp;P1;durP1;ratioP1;P2;durP2;ratioP2
13483;SDS011;6814;57.786;12.080;2022-09-16T00:01:25;4.37;;;0.87;;
13483;SDS011;6814;57.786;12.080;2022-09-16T00:03:52;2.17;;;0.50;;
13483;SDS011;6814;57.786;12.080;2022-09-16T00:06:20;2.13;;;0.70;;
13483;SDS011;6814;57.786;12.080;2022-09-16T00:08:47;2.83;;;0.80;;
13483;SDS011;6814;57.786;12.080;2022-09-16T00:11:14;5.70;;;0.93;;
13483;SDS011;6814;57.786;12.080;2022-09-16T00:13:41;3.90;;;0.97;;
13483;SDS011;6814;57.786;12.080;2022-09-16T00:16:09;2.63;;;0.50;;
13483;SDS011;6814;57.786;12.080;2022-09-16T00:18:36;3.37;;;0.60;;
13483;SDS011;6814;57.786;12.080;2022-09-16T00:21:05;2.80;;;0.50;;
13483;SDS011;6814;57.786;12.080;2022-09-16T00:23:32;4.80;;;1.10;;
13483;SDS011;6814;57.786;12.080;2022-09-16T00:25:59;3.33;;;0.93;;
13483;SDS011;6814;57.786;12.080;2022-09-16T00:28:25;3.73;;;0.90;;
13483;SDS011;6814;57.786;12.080;2022-09-16T00:30:52;3.43;;;0.80;;
13483;SDS011;6814;57.786;12.080;2022-09-16T00:33:19;4.80;;;0.70;;
13483;SDS011;6814;57.786;12.080;2022-09-16T00:35:46;5.87;;;0.90;;
13483;SDS011;6814;57.786;12.080;2022-09-16T00:38:13;3.03;;;0.80;;
13483;SDS011;6814;57.786;12.080;2022-09-16T00:40:43;3.43;;;0.63;;
13483;SDS011;6814;57.786;12.080;2022-09-16T00:43:10;5.70;;;0.97;;
13483;SDS011;6814;57.786;12.080;2022-09-16T00:45:37;1.73;;;0.90;;
13483;SDS011;6814;57.786;12.080;2022-09-16T00:48:04;4.10;;;0.73;;
13483;SDS011;6814;57.786;12.080;2022-09-16T00:50:34;3.70;;;0.90;;
13483;SDS011;6814;57.786;12.080;2022-09-16T00:53:02;3.17;;;0.73;;
13483;SDS011;6814;57.786;12.080;2022-09-16T00:55:29;3.07;;;0.70;;
13483;SDS011;6814;57.786;12.080;2022-09-16T00:57:58;3.67;;;0.50;;
13483;SDS011;6814;57.786;12.080;2022-09-16T01:00:27;2.87;;;0.70;;
13483;SDS011;6814;57.786;12.080;2022-09-16T01:02:53;4.07;;;0.77;;
13483;SDS011;6814;57.786;12.080;2022-09-16T01:05:21;1.70;;;0.63;;
13483;SDS011;6814;57.786;12.080;2022-09-16T01:07:52;2.67;;;0.50;;
13483;SDS011;6814;57.786;12.080;2022-09-16T01:10:19;3.47;;;0.50;;
13483;SDS011;6814;57.786;12.080;2022-09-16T01:12:47;1.53;;;0.50;;
13483;SDS011;6814;57.786;12.080;2022-09-16T01:15:15;1.83;;;0.60;;
13483;SDS011;6814;57.786;12.080;2022-09-16T01:17:51;2.07;;;0.50;;
13483;SDS011;6814;57.786;12.080;2022-09-16T01:20:27;3.37;;;0.50;;
13483;SDS011;6814;57.786;12.080;2022-09-16T01:23:14;4.83;;;0.50;;
13483;SDS011;6814;57.786;12.080;2022-09-16T01:25:53;1.43;;;0.53;;
13483;SDS011;6814;57.786;12.080;2022-09-16T01:28:40;2.87;;;0.60;;
13483;SDS011;6814;57.786;12.080;2022-09-16T01:31:16;2.73;;;0.67;;
13483;SDS011;6814;57.786;12.080;2022-09-16T01:33:46;1.93;;;0.50;;
13483;SDS011;6814;57.786;12.080;2022-09-16T01:36:21;2.40;;;0.60;;
13483;SDS011;6814;57.786;12.080;2022-09-16T01:38:55;1.37;;;0.73;;
13483;SDS011;6814;57.786;12.080;2022-09-16T01:41:27;1.80;;;0.60;;
13483;SDS011;6814;57.786;12.080;2022-09-16T01:44:01;2.17;;;0.57;;
13483;SDS011;6814;57.786;12.080;2022-09-16T01:46:33;3.87;;;0.70;;
13483;SDS011;6814;57.786;12.080;2022-09-16T01:49:06;2.83;;;0.57;;
13483;SDS011;6814;57.786;12.080;2022-09-16T01:51:36;1.90;;;0.40;;
13483;SDS011;6814;57.786;12.080;2022-09-16T01:54:07;3.93;;;0.40;;
13483;SDS011;6814;57.786;12.080;2022-09-16T01:56:36;4.23;;;0.80;;
13483;SDS011;6814;57.786;12.080;2022-09-16T01:59:06;2.07;;;0.40;;
13483;SDS011;6814;57.786;12.080;2022-09-16T02:01:35;2.40;;;0.60;;
13483;SDS011;6814;57.786;12.080;2022-09-16T02:04:05;1.67;;;0.40;;
13483;SDS011;6814;57.786;12.080;2022-09-16T02:06:34;1.77;;;0.30;;
13483;SDS011;6814;57.786;12.080;2022-09-16T02:09:03;3.03;;;0.43;;
13483;SDS011;6814;57.786;12.080;2022-09-16T02:11:30;2.60;;;0.63;;
13483;SDS011;6814;57.786;12.080;2022-09-16T02:13:58;5.47;;;0.50;;
13483;SDS011;6814;57.786;12.080;2022-09-16T02:16:29;3.83;;;1.27;;
13483;SDS011;6814;57.786;12.080;2022-09-16T02:18:59;0.97;;;0.43;;
13483;SDS011;6814;57.786;12.080;2022-09-16T02:21:26;2.40;;;0.60;;
13483;SDS011;6814;57.786;12.080;2022-09-16T02:23:56;2.47;;;0.80;;
13483;SDS011;6814;57.786;12.080;2022-09-16T02:26:26;2.13;;;0.47;;
13483;SDS011;6814;57.786;12.080;2022-09-16T02:28:54;0.93;;;0.60;;
13483;SDS011;6814;57.786;12.080;2022-09-16T02:31:21;1.20;;;0.60;;
13483;SDS011;6814;57.786;12.080;2022-09-16T02:33:50;1.20;;;0.43;;
13483;SDS011;6814;57.786;12.080;2022-09-16T02:36:20;1.53;;;0.50;;
13483;SDS011;6814;57.786;12.080;2022-09-16T02:38:49;1.80;;;0.50;;
13483;SDS011;6814;57.786;12.080;2022-09-16T02:41:17;1.13;;;0.30;;
13483;SDS011;6814;57.786;12.080;2022-09-16T02:43:44;4.87;;;0.30;;
13483;SDS011;6814;57.786;12.080;2022-09-16T02:46:15;2.40;;;0.60;;
13483;SDS011;6814;57.786;12.080;2022-09-16T02:48:47;2.50;;;0.30;;
13483;SDS011;6814;57.786;12.080;2022-09-16T02:51:22;3.23;;;0.50;;
13483;SDS011;6814;57.786;12.080;2022-09-16T02:53:53;1.40;;;0.20;;
13483;SDS011;6814;57.786;12.080;2022-09-16T02:56:22;0.93;;;0.40;;
13483;SDS011;6814;57.786;12.080;2022-09-16T02:58:50;2.73;;;0.60;;
13483;SDS011;6814;57.786;12.080;2022-09-16T03:01:16;1.27;;;0.47;;
13483;SDS011;6814;57.786;12.080;2022-09-16T03:03:44;0.70;;;0.30;;
13483;SDS011;6814;57.786;12.080;2022-09-16T03:06:13;1.63;;;0.70;;
13483;SDS011;6814;57.786;12.080;2022-09-16T03:08:41;1.03;;;0.37;;
13483;SDS011;6814;57.786;12.080;2022-09-16T03:11:12;2.40;;;0.97;;
13483;SDS011;6814;57.786;12.080;2022-09-16T03:13:43;0.53;;;0.43;;
13483;SDS011;6814;57.786;12.080;2022-09-16T03:16:14;0.80;;;0.40;;
13483;SDS011;6814;57.786;12.080;2022-09-16T03:18:46;0.77;;;0.20;;
13483;SDS011;6814;57.786;12.080;2022-09-16T03:21:16;1.60;;;0.40;;
13483;SDS011;6814;57.786;12.080;2022-09-16T03:23:48;2.33;;;0.30;;
13483;SDS011;6814;57.786;12.080;2022-09-16T03:26:19;2.63;;;0.60;;
13483;SDS011;6814;57.786;12.080;2022-09-16T03:28:50;0.53;;;0.33;;
13483;SDS011;6814;57.786;12.080;2022-09-16T03:31:23;1.23;;;0.50;;
13483;SDS011;6814;57.786;12.080;2022-09-16T03:33:52;1.10;;;0.33;;
13483;SDS011;6814;57.786;12.080;2022-09-16T03:36:21;1.27;;;0.20;;
13483;SDS011;6814;57.786;12.080;2022-09-16T03:38:51;1.47;;;0.40;;
13483;SDS011;6814;57.786;12.080;2022-09-16T03:41:18;0.40;;;0.37;;
13483;SDS011;6814;57.786;12.080;2022-09-16T03:43:51;1.40;;;0.40;;
13483;SDS011;6814;57.786;12.080;2022-09-16T03:46:18;1.10;;;0.40;;
13483;SDS011;6814;57.786;12.080;2022-09-16T03:48:44;0.83;;;0.33;;
13483;SDS011;6814;57.786;12.080;2022-09-16T03:51:11;1.67;;;0.30;;
13483;SDS011;6814;57.786;12.080;2022-09-16T03:53:38;1.53;;;0.30;;
13483;SDS011;6814;57.786;12.080;2022-09-16T03:56:06;0.20;;;0.10;;
13483;SDS011;6814;57.786;12.080;2022-09-16T03:58:32;4.10;;;0.40;;
13483;SDS011;6814;57.786;12.080;2022-09-16T04:00:59;1.27;;;0.30;;
13483;SDS011;6814;57.786;12.080;2022-09-16T04:03:25;1.40;;;0.53;;
13483;SDS011;6814;57.786;12.080;2022-09-16T04:05:52;0.33;;;0.20;;
13483;SDS011;6814;57.786;12.080;2022-09-16T04:08:18;0.53;;;0.20;;
13483;SDS011;6814;57.786;12.080;2022-09-16T04:10:52;2.23;;;0.50;;
13483;SDS011;6814;57.786;12.080;2022-09-16T04:13:24;1.07;;;0.20;;
13483;SDS011;6814;57.786;12.080;2022-09-16T04:15:56;0.60;;;0.20;;
13483;SDS011;6814;57.786;12.080;2022-09-16T04:18:23;0.93;;;0.53;;
13483;SDS011;6814;57.786;12.080;2022-09-16T04:20:54;1.23;;;0.30;;
13483;SDS011;6814;57.786;12.080;2022-09-16T04:23:22;0.27;;;0.27;;
13483;SDS011;6814;57.786;12.080;2022-09-16T04:25:54;1.63;;;0.10;;
13483;SDS011;6814;57.786;12.080;2022-09-16T04:28:36;0.77;;;0.30;;
13483;SDS011;6814;57.786;12.080;2022-09-16T04:31:04;0.97;;;0.20;;
13483;SDS011;6814;57.786;12.080;2022-09-16T04:33:34;0.30;;;0.20;;
13483;SDS011;6814;57.786;12.080;2022-09-16T04:36:18;1.33;;;0.30;;
13483;SDS011;6814;57.786;12.080;2022-09-16T04:38:53;0.67;;;0.20;;
13483;SDS011;6814;57.786;12.080;2022-09-16T04:41:34;0.83;;;0.27;;
13483;SDS011;6814;57.786;12.080;2022-09-16T04:44:10;1.50;;;0.23;;
13483;SDS011;6814;57.786;12.080;2022-09-16T04:46:37;0.20;;;0.20;;
13483;SDS011;6814;57.786;12.080;2022-09-16T04:49:03;0.77;;;0.30;;
13483;SDS011;6814;57.786;12.080;2022-09-16T04:51:30;1.40;;;0.77;;
13483;SDS011;6814;57.786;12.080;2022-09-16T04:54:00;0.77;;;0.30;;
13483;SDS011;6814;57.786;12.080;2022-09-16T04:56:34;0.10;;;0.10;;
13483;SDS011;6814;57.786;12.080;2022-09-16T04:59:02;0.73;;;0.33;;
13483;SDS011;6814;57.786;12.080;2022-09-16T05:01:31;1.23;;;0.30;;
13483;SDS011;6814;57.786;12.080;2022-09-16T05:03:58;0.30;;;0.20;;
13483;SDS011;6814;57.786;12.080;2022-09-16T05:06:26;0.43;;;0.30;;
13483;SDS011;6814;57.786;12.080;2022-09-16T05:08:53;0.20;;;0.20;;
13483;SDS011;6814;57.786;12.080;2022-09-16T05:11:20;1.40;;;0.20;;
13483;SDS011;6814;57.786;12.080;2022-09-16T05:13:47;0.40;;;0.30;;
13483;SDS011;6814;57.786;12.080;2022-09-16T05:16:14;0.33;;;0.30;;
13483;SDS011;6814;57.786;12.080;2022-09-16T05:18:44;0.10;;;0.10;;
13483;SDS011;6814;57.786;12.080;2022-09-16T05:21:15;1.27;;;0.43;;
13483;SDS011;6814;57.786;12.080;2022-09-16T05:23:42;0.67;;;0.10;;
13483;SDS011;6814;57.786;12.080;2022-09-16T05:26:10;1.30;;;0.20;;
13483;SDS011;6814;57.786;12.080;2022-09-16T05:28:38;0.47;;;0.20;;
13483;SDS011;6814;57.786;12.080;2022-09-16T05:31:06;0.20;;;0.20;;
13483;SDS011;6814;57.786;12.080;2022-09-16T05:33:44;1.50;;;0.50;;
13483;SDS011;6814;57.786;12.080;2022-09-16T05:36:11;2.23;;;0.30;;
13483;SDS011;6814;57.786;12.080;2022-09-16T05:38:38;0.30;;;0.20;;
13483;SDS011;6814;57.786;12.080;2022-09-16T05:41:05;0.13;;;0.13;;
13483;SDS011;6814;57.786;12.080;2022-09-16T05:43:40;1.47;;;0.30;;
13483;SDS011;6814;57.786;12.080;2022-09-16T05:46:23;0.20;;;0.20;;
13483;SDS011;6814;57.786;12.080;2022-09-16T05:49:19;1.33;;;0.20;;
13483;SDS011;6814;57.786;12.080;2022-09-16T05:51:45;0.50;;;0.23;;
13483;SDS011;6814;57.786;12.080;2022-09-16T05:54:12;1.10;;;0.60;;
13483;SDS011;6814;57.786;12.080;2022-09-16T05:56:47;3.90;;;0.30;;
13483;SDS011;6814;57.786;12.080;2022-09-16T06:02:36;0.30;;;0.30;;
13483;SDS011;6814;57.786;12.080;2022-09-16T06:05:17;1.33;;;0.30;;
13483;SDS011;6814;57.786;12.080;2022-09-16T06:08:07;0.50;;;0.30;;
13483;SDS011;6814;57.786;12.080;2022-09-16T06:10:39;0.20;;;0.20;;
13483;SDS011;6814;57.786;12.080;2022-09-16T06:13:06;0.30;;;0.30;;
13483;SDS011;6814;57.786;12.080;2022-09-16T06:15:37;0.60;;;0.33;;
13483;SDS011;6814;57.786;12.080;2022-09-16T06:18:09;0.33;;;0.20;;
13483;SDS011;6814;57.786;12.080;2022-09-16T06:20:41;1.63;;;0.27;;
13483;SDS011;6814;57.786;12.080;2022-09-16T06:23:16;0.30;;;0.20;;
13483;SDS011;6814;57.786;12.080;2022-09-16T06:25:46;0.40;;;0.30;;
13483;SDS011;6814;57.786;12.080;2022-09-16T06:28:18;1.20;;;0.30;;
13483;SDS011;6814;57.786;12.080;2022-09-16T06:30:59;3.13;;;0.30;;
13483;SDS011;6814;57.786;12.080;2022-09-16T06:33:43;0.90;;;0.50;;
13483;SDS011;6814;57.786;12.080;2022-09-16T06:36:12;1.40;;;0.23;;
13483;SDS011;6814;57.786;12.080;2022-09-16T06:38:39;0.80;;;0.50;;
13483;SDS011;6814;57.786;12.080;2022-09-16T06:41:06;0.73;;;0.20;;
13483;SDS011;6814;57.786;12.080;2022-09-16T06:43:36;0.37;;;0.30;;
13483;SDS011;6814;57.786;12.080;2022-09-16T06:46:07;0.40;;;0.30;;
13483;SDS011;6814;57.786;12.080;2022-09-16T06:48:36;0.30;;;0.30;;
13483;SDS011;6814;57.786;12.080;2022-09-16T06:51:09;1.77;;;0.50;;
13483;SDS011;6814;57.786;12.080;2022-09-16T06:53:42;2.30;;;0.40;;
13483;SDS011;6814;57.786;12.080;2022-09-16T06:56:09;0.33;;;0.33;;
13483;SDS011;6814;57.786;12.080;2022-09-16T06:58:37;0.23;;;0.23;;
13483;SDS011;6814;57.786;12.080;2022-09-16T07:01:05;1.60;;;0.40;;
13483;SDS011;6814;57.786;12.080;2022-09-16T07:03:31;1.07;;;0.30;;
13483;SDS011;6814;57.786;12.080;2022-09-16T07:05:58;0.97;;;0.40;;
13483;SDS011;6814;57.786;12.080;2022-09-16T07:08:26;0.30;;;0.30;;
13483;SDS011;6814;57.786;12.080;2022-09-16T07:11:00;0.33;;;0.33;;
13483;SDS011;6814;57.786;12.080;2022-09-16T07:13:27;2.67;;;0.30;;
13483;SDS011;6814;57.786;12.080;2022-09-16T07:16:17;2.27;;;0.43;;
13483;SDS011;6814;57.786;12.080;2022-09-16T07:18:44;0.53;;;0.30;;
13483;SDS011;6814;57.786;12.080;2022-09-16T07:21:15;1.27;;;0.30;;
13483;SDS011;6814;57.786;12.080;2022-09-16T07:23:56;0.83;;;0.30;;
13483;SDS011;6814;57.786;12.080;2022-09-16T07:26:28;1.07;;;0.20;;
13483;SDS011;6814;57.786;12.080;2022-09-16T07:28:57;2.37;;;0.30;;
13483;SDS011;6814;57.786;12.080;2022-09-16T07:31:25;0.20;;;0.20;;
13483;SDS011;6814;57.786;12.080;2022-09-16T07:33:52;1.33;;;0.40;;
13483;SDS011;6814;57.786;12.080;2022-09-16T07:36:19;0.57;;;0.30;;
13483;SDS011;6814;57.786;12.080;2022-09-16T07:38:47;0.40;;;0.30;;
13483;SDS011;6814;57.786;12.080;2022-09-16T07:41:15;0.33;;;0.33;;
13483;SDS011;6814;57.786;12.080;2022-09-16T07:43:44;0.30;;;0.30;;
13483;SDS011;6814;57.786;12.080;2022-09-16T07:46:12;2.93;;;0.47;;
13483;SDS011;6814;57.786;12.080;2022-09-16T07:48:40;4.40;;;0.33;;
13483;SDS011;6814;57.786;12.080;2022-09-16T07:51:07;1.73;;;0.40;;
13483;SDS011;6814;57.786;12.080;2022-09-16T07:53:34;0.20;;;0.20;;
13483;SDS011;6814;57.786;12.080;2022-09-16T07:56:01;1.37;;;0.50;;
13483;SDS011;6814;57.786;12.080;2022-09-16T07:58:28;1.33;;;0.30;;
13483;SDS011;6814;57.786;12.080;2022-09-16T08:00:56;0.73;;;0.40;;
13483;SDS011;6814;57.786;12.080;2022-09-16T08:03:22;0.30;;;0.23;;
13483;SDS011;6814;57.786;12.080;2022-09-16T08:05:48;0.67;;;0.27;;
13483;SDS011;6814;57.786;12.080;2022-09-16T08:08:15;1.30;;;0.30;;
13483;SDS011;6814;57.786;12.080;2022-09-16T08:10:51;0.27;;;0.23;;
13483;SDS011;6814;57.786;12.080;2022-09-16T08:13:17;0.23;;;0.23;;
13483;SDS011;6814;57.786;12.080;2022-09-16T08:15:44;0.83;;;0.20;;
13483;SDS011;6814;57.786;12.080;2022-09-16T08:18:12;0.57;;;0.20;;
13483;SDS011;6814;57.786;12.080;2022-09-16T08:20:38;0.63;;;0.63;;
13483;SDS011;6814;57.786;12.080;2022-09-16T08:23:04;0.40;;;0.23;;
13483;SDS011;6814;57.786;12.080;2022-09-16T08:25:31;0.20;;;0.20;;
13483;SDS011;6814;57.786;12.080;2022-09-16T08:27:57;0.30;;;0.13;;
13483;SDS011;6814;57.786;12.080;2022-09-16T08:30:24;0.23;;;0.23;;
13483;SDS011;6814;57.786;12.080;2022-09-16T08:32:54;0.20;;;0.20;;
13483;SDS011;6814;57.786;12.080;2022-09-16T08:35:22;0.30;;;0.30;;
13483;SDS011;6814;57.786;12.080;2022-09-16T08:37:48;0.57;;;0.20;;
13483;SDS011;6814;57.786;12.080;2022-09-16T08:40:15;0.20;;;0.20;;
13483;SDS011;6814;57.786;12.080;2022-09-16T08:42:45;0.30;;;0.20;;
13483;SDS011;6814;57.786;12.080;2022-09-16T08:45:18;2.13;;;0.23;;
13483;SDS011;6814;57.786;12.080;2022-09-16T08:47:49;0.17;;;0.17;;
13483;SDS011;6814;57.786;12.080;2022-09-16T08:50:24;0.30;;;0.20;;
13483;SDS011;6814;57.786;12.080;2022-09-16T08:52:52;0.43;;;0.30;;
13483;SDS011;6814;57.786;12.080;2022-09-16T08:55:20;1.27;;;0.20;;
13483;SDS011;6814;57.786;12.080;2022-09-16T08:57:52;1.07;;;0.30;;
13483;SDS011;6814;57.786;12.080;2022-09-16T09:00:20;1.73;;;0.20;;
13483;SDS011;6814;57.786;12.080;2022-09-16T09:02:47;0.30;;;0.30;;
13483;SDS011;6814;57.786;12.080;2022-09-16T09:05:17;0.30;;;0.20;;
13483;SDS011;6814;57.786;12.080;2022-09-16T09:07:52;0.00;;;0.00;;
13483;SDS011;6814;57.786;12.080;2022-09-16T09:10:21;0.20;;;0.20;;
13483;SDS011;6814;57.786;12.080;2022-09-16T09:12:52;0.10;;;0.10;;
13483;SDS011;6814;57.786;12.080;2022-09-16T09:15:35;0.47;;;0.30;;
13483;SDS011;6814;57.786;12.080;2022-09-16T09:18:27;0.23;;;0.23;;
13483;SDS011;6814;57.786;12.080;2022-09-16T09:21:04;0.20;;;0.10;;
13483;SDS011;6814;57.786;12.080;2022-09-16T09:23:42;3.13;;;0.30;;
13483;SDS011;6814;57.786;12.080;2022-09-16T09:26:13;0.27;;;0.20;;
13483;SDS011;6814;57.786;12.080;2022-09-16T09:28:46;0.30;;;0.10;;
13483;SDS011;6814;57.786;12.080;2022-09-16T09:31:16;0.83;;;0.17;;
13483;SDS011;6814;57.786;12.080;2022-09-16T09:33:46;0.20;;;0.20;;
13483;SDS011;6814;57.786;12.080;2022-09-16T09:41:40;0.57;;;0.30;;
13483;SDS011;6814;57.786;12.080;2022-09-16T09:44:14;0.77;;;0.30;;
13483;SDS011;6814;57.786;12.080;2022-09-16T09:46:48;1.53;;;0.10;;
13483;SDS011;6814;57.786;12.080;2022-09-16T09:49:20;0.10;;;0.10;;
13483;SDS011;6814;57.786;12.080;2022-09-16T09:51:55;0.77;;;0.10;;
13483;SDS011;6814;57.786;12.080;2022-09-16T09:54:25;0.37;;;0.17;;
13483;SDS011;6814;57.786;12.080;2022-09-16T09:56:56;0.40;;;0.10;;
13483;SDS011;6814;57.786;12.080;2022-09-16T09:59:24;0.10;;;0.10;;
13483;SDS011;6814;57.786;12.080;2022-09-16T10:01:52;0.10;;;0.10;;
13483;SDS011;6814;57.786;12.080;2022-09-16T10:04:19;0.20;;;0.20;;
13483;SDS011;6814;57.786;12.080;2022-09-16T10:06:45;0.80;;;0.20;;
13483;SDS011;6814;57.786;12.080;2022-09-16T10:09:14;0.60;;;0.20;;
13483;SDS011;6814;57.786;12.080;2022-09-16T10:11:45;0.17;;;0.17;;
13483;SDS011;6814;57.786;12.080;2022-09-16T10:14:20;0.10;;;0.10;;
13483;SDS011;6814;57.786;12.080;2022-09-16T10:16:47;0.53;;;0.00;;
13483;SDS011;6814;57.786;12.080;2022-09-16T10:19:24;0.10;;;0.00;;
13483;SDS011;6814;57.786;12.080;2022-09-16T10:22:20;0.10;;;0.10;;
13483;SDS011;6814;57.786;12.080;2022-09-16T10:24:53;0.20;;;0.20;;
13483;SDS011;6814;57.786;12.080;2022-09-16T10:27:21;0.57;;;0.20;;
13483;SDS011;6814;57.786;12.080;2022-09-16T10:30:11;0.10;;;0.10;;
13483;SDS011;6814;57.786;12.080;2022-09-16T10:32:39;0.10;;;0.10;;
13483;SDS011;6814;57.786;12.080;2022-09-16T10:35:15;0.63;;;0.20;;
13483;SDS011;6814;57.786;12.080;2022-09-16T10:37:55;0.77;;;0.07;;
13483;SDS011;6814;57.786;12.080;2022-09-16T10:40:36;1.13;;;0.20;;
13483;SDS011;6814;57.786;12.080;2022-09-16T10:43:06;0.57;;;0.20;;
13483;SDS011;6814;57.786;12.080;2022-09-16T10:45:44;0.63;;;0.20;;
13483;SDS011;6814;57.786;12.080;2022-09-16T10:48:18;0.00;;;0.00;;
13483;SDS011;6814;57.786;12.080;2022-09-16T10:50:55;0.33;;;0.10;;
13483;SDS011;6814;57.786;12.080;2022-09-16T10:53:24;0.33;;;0.17;;
13483;SDS011;6814;57.786;12.080;2022-09-16T10:55:55;0.07;;;0.07;;
13483;SDS011;6814;57.786;12.080;2022-09-16T10:58:22;0.20;;;0.20;;
13483;SDS011;6814;57.786;12.080;2022-09-16T11:00:56;3.63;;;0.20;;
13483;SDS011;6814;57.786;12.080;2022-09-16T11:03:46;0.00;;;0.00;;
13483;SDS011;6814;57.786;12.080;2022-09-16T11:06:28;0.00;;;0.00;;
13483;SDS011;6814;57.786;12.080;2022-09-16T11:09:03;0.97;;;0.20;;
13483;SDS011;6814;57.786;12.080;2022-09-16T11:11:41;0.10;;;0.10;;
13483;SDS011;6814;57.786;12.080;2022-09-16T11:14:12;0.10;;;0.10;;
13483;SDS011;6814;57.786;12.080;2022-09-16T11:16:49;0.10;;;0.10;;
13483;SDS011;6814;57.786;12.080;2022-09-16T11:19:18;0.00;;;0.00;;
13483;SDS011;6814;57.786;12.080;2022-09-16T11:24:54;0.20;;;0.00;;
13483;SDS011;6814;57.786;12.080;2022-09-16T11:27:26;0.93;;;0.07;;
13483;SDS011;6814;57.786;12.080;2022-09-16T11:30:08;0.00;;;0.00;;
13483;SDS011;6814;57.786;12.080;2022-09-16T11:35:31;0.67;;;0.10;;
13483;SDS011;6814;57.786;12.080;2022-09-16T11:38:02;0.00;;;0.00;;
13483;SDS011;6814;57.786;12.080;2022-09-16T11:40:33;0.03;;;0.03;;
13483;SDS011;6814;57.786;12.080;2022-09-16T11:43:12;0.10;;;0.10;;
13483;SDS011;6814;57.786;12.080;2022-09-16T11:45:42;0.00;;;0.00;;
13483;SDS011;6814;57.786;12.080;2022-09-16T11:48:31;0.00;;;0.00;;
13483;SDS011;6814;57.786;12.080;2022-09-16T11:51:03;0.33;;;0.10;;
13483;SDS011;6814;57.786;12.080;2022-09-16T11:53:41;1.50;;;0.07;;
13483;SDS011;6814;57.786;12.080;2022-09-16T11:56:10;0.17;;;0.00;;
13483;SDS011;6814;57.786;12.080;2022-09-16T11:58:40;0.00;;;0.00;;
13483;SDS011;6814;57.786;12.080;2022-09-16T12:01:12;0.03;;;0.00;;
13483;SDS011;6814;57.786;12.080;2022-09-16T12:03:41;0.00;;;0.00;;
13483;SDS011;6814;57.786;12.080;2022-09-16T12:06:12;0.17;;;0.00;;
13483;SDS011;6814;57.786;12.080;2022-09-16T12:08:44;0.00;;;0.00;;
13483;SDS011;6814;57.786;12.080;2022-09-16T12:11:17;0.00;;;0.00;;
13483;SDS011;6814;57.786;12.080;2022-09-16T12:13:45;0.00;;;0.00;;
13483;SDS011;6814;57.786;12.080;2022-09-16T12:16:14;0.10;;;0.00;;
13483;SDS011;6814;57.786;12.080;2022-09-16T12:18:42;0.00;;;0.00;;
13483;SDS011;6814;57.786;12.080;2022-09-16T12:21:09;0.07;;;0.07;;
13483;SDS011;6814;57.786;12.080;2022-09-16T12:23:41;0.00;;;0.00;;
13483;SDS011;6814;57.786;12.080;2022-09-16T12:26:09;0.00;;;0.00;;
13483;SDS011;6814;57.786;12.080;2022-09-16T12:28:37;0.00;;;0.00;;
13483;SDS011;6814;57.786;12.080;2022-09-16T12:31:09;0.20;;;0.07;;
13483;SDS011;6814;57.786;12.080;2022-09-16T12:33:39;0.00;;;0.00;;
13483;SDS011;6814;57.786;12.080;2022-09-16T12:36:09;0.07;;;0.00;;
13483;SDS011;6814;57.786;12.080;2022-09-16T12:38:36;0.00;;;0.00;;
13483;SDS011;6814;57.786;12.080;2022-09-16T12:41:16;0.00;;;0.00;;
13483;SDS011;6814;57.786;12.080;2022-09-16T12:46:37;0.77;;;0.00;;
13483;SDS011;6814;57.786;12.080;2022-09-16T12:49:24;0.00;;;0.00;;
13483;SDS011;6814;57.786;12.080;2022-09-16T12:54:47;0.00;;;0.00;;
13483;SDS011;6814;57.786;12.080;2022-09-16T12:57:25;0.03;;;0.03;;
13483;SDS011;6814;57.786;12.080;2022-09-16T13:00:01;0.77;;;0.00;;
13483;SDS011;6814;57.786;12.080;2022-09-16T13:02:32;0.40;;;0.00;;
13483;SDS011;6814;57.786;12.080;2022-09-16T13:05:02;0.00;;;0.00;;
13483;SDS011;6814;57.786;12.080;2022-09-16T13:07:34;0.07;;;0.07;;
13483;SDS011;6814;57.786;12.080;2022-09-16T13:10:02;0.00;;;0.00;;
13483;SDS011;6814;57.786;12.080;2022-09-16T13:12:31;0.10;;;0.10;;
13483;SDS011;6814;57.786;12.080;2022-09-16T13:15:02;0.00;;;0.00;;
13483;SDS011;6814;57.786;12.080;2022-09-16T13:17:38;0.20;;;0.10;;
13483;SDS011;6814;57.786;12.080;2022-09-16T13:20:05;0.00;;;0.00;;
13483;SDS011;6814;57.786;12.080;2022-09-16T13:22:42;0.93;;;0.10;;
13483;SDS011;6814;57.786;12.080;2022-09-16T13:25:10;0.03;;;0.00;;
13483;SDS011;6814;57.786;12.080;2022-09-16T13:27:53;0.00;;;0.00;;
13483;SDS011;6814;57.786;12.080;2022-09-16T13:33:31;0.63;;;0.10;;
13483;SDS011;6814;57.786;12.080;2022-09-16T13:36:03;0.00;;;0.00;;
13483;SDS011;6814;57.786;12.080;2022-09-16T13:38:36;0.60;;;0.10;;
13483;SDS011;6814;57.786;12.080;2022-09-16T13:41:04;0.00;;;0.00;;
13483;SDS011;6814;57.786;12.080;2022-09-16T13:43:48;0.00;;;0.00;;
13483;SDS011;6814;57.786;12.080;2022-09-16T13:46:35;0.07;;;0.07;;
13483;SDS011;6814;57.786;12.080;2022-09-16T13:49:18;0.00;;;0.00;;
13483;SDS011;6814;57.786;12.080;2022-09-16T13:51:51;0.90;;;0.03;;
13483;SDS011;6814;57.786;12.080;2022-09-16T13:54:25;0.50;;;0.10;;
13483;SDS011;6814;57.786;12.080;2022-09-16T13:59:39;0.10;;;0.00;;
13483;SDS011;6814;57.786;12.080;2022-09-16T14:02:11;0.63;;;0.00;;
13483;SDS011;6814;57.786;12.080;2022-09-16T14:04:54;0.30;;;0.10;;
13483;SDS011;6814;57.786;12.080;2022-09-16T14:07:33;0.00;;;0.00;;
13483;SDS011;6814;57.786;12.080;2022-09-16T14:10:06;0.30;;;0.10;;
13483;SDS011;6814;57.786;12.080;2022-09-16T14:12:40;0.33;;;0.20;;
13483;SDS011;6814;57.786;12.080;2022-09-16T14:15:10;0.47;;;0.10;;
13483;SDS011;6814;57.786;12.080;2022-09-16T14:17:38;0.67;;;0.10;;
13483;SDS011;6814;57.786;12.080;2022-09-16T14:20:09;0.10;;;0.10;;
13483;SDS011;6814;57.786;12.080;2022-09-16T14:22:40;0.00;;;0.00;;
13483;SDS011;6814;57.786;12.080;2022-09-16T14:25:23;0.10;;;0.10;;
13483;SDS011;6814;57.786;12.080;2022-09-16T14:27:50;0.07;;;0.07;;
13483;SDS011;6814;57.786;12.080;2022-09-16T14:30:18;1.00;;;0.10;;
13483;SDS011;6814;57.786;12.080;2022-09-16T14:32:45;0.10;;;0.10;;
13483;SDS011;6814;57.786;12.080;2022-09-16T14:35:16;0.10;;;0.10;;
13483;SDS011;6814;57.786;12.080;2022-09-16T14:37:44;0.00;;;0.00;;
13483;SDS011;6814;57.786;12.080;2022-09-16T14:40:11;0.37;;;0.10;;
13483;SDS011;6814;57.786;12.080;2022-09-16T14:42:38;0.17;;;0.10;;
13483;SDS011;6814;57.786;12.080;2022-09-16T14:45:12;0.10;;;0.10;;
13483;SDS011;6814;57.786;12.080;2022-09-16T14:47:41;0.30;;;0.10;;
13483;SDS011;6814;57.786;12.080;2022-09-16T14:50:10;0.73;;;0.10;;
13483;SDS011;6814;57.786;12.080;2022-09-16T14:52:38;1.63;;;0.10;;
13483;SDS011;6814;57.786;12.080;2022-09-16T14:55:06;0.07;;;0.07;;
13483;SDS011;6814;57.786;12.080;2022-09-16T14:57:33;0.63;;;0.10;;
13483;SDS011;6814;57.786;12.080;2022-09-16T15:00:00;0.87;;;0.00;;
13483;SDS011;6814;57.786;12.080;2022-09-16T15:02:28;0.57;;;0.03;;
13483;SDS011;6814;57.786;12.080;2022-09-16T15:04:58;0.00;;;0.00;;
13483;SDS011;6814;57.786;12.080;2022-09-16T15:07:29;0.20;;;0.00;;
13483;SDS011;6814;57.786;12.080;2022-09-16T15:09:58;0.13;;;0.00;;
13483;SDS011;6814;57.786;12.080;2022-09-16T15:12:27;0.53;;;0.10;;
13483;SDS011;6814;57.786;12.080;2022-09-16T15:14:54;0.00;;;0.00;;
13483;SDS011;6814;57.786;12.080;2022-09-16T15:17:21;0.77;;;0.10;;
13483;SDS011;6814;57.786;12.080;2022-09-16T15:19:49;0.00;;;0.00;;
13483;SDS011;6814;57.786;12.080;2022-09-16T15:22:18;0.10;;;0.10;;
13483;SDS011;6814;57.786;12.080;2022-09-16T15:24:44;0.70;;;0.37;;
13483;SDS011;6814;57.786;12.080;2022-09-16T15:27:12;1.07;;;0.10;;
13483;SDS011;6814;57.786;12.080;2022-09-16T15:29:45;0.50;;;0.10;;
13483;SDS011;6814;57.786;12.080;2022-09-16T15:32:16;2.57;;;0.30;;
13483;SDS011;6814;57.786;12.080;2022-09-16T15:34:43;0.43;;;0.10;;
13483;SDS011;6814;57.786;12.080;2022-09-16T15:37:28;0.40;;;0.03;;